Great Falls, MT

1:59 PM MDT on September 27, 2016 (GMT -0600)
Great Falls South SIde | | Change Station

Elev 3399 ft 47.50 °N, 111.27 °W | Updated 5 seconds ago

Clear
Clear
83.4 °F
Feels Like 81 °F
N
0.0
Wind Variable Wind from North
Gusts 1.0 mph

Today
High -- | Low -- °F
--% Chance of Precip.
Yesterday
High -- | Low -- °F
Precip. -- in
Pressure 29.93 in
Visibility 10.0 miles
Clouds Clear
Heat Index 81 °F
Dew Point 43 °F
Humidity 24%
Rainfall 0.00 in
Snow Depth Not available.
7:19 AM 7:11 PM
Waning Crescent, 10% visible
METAR KGTF 271953Z 22012KT 10SM CLR 28/04 A3001 RMK AO2 SLP135 T02780039
Pressure 29.93 in
Visibility 10.0 miles
Clouds Clear
Heat Index 81 °F
Dew Point 43 °F
Humidity 24%
Rainfall 0.00 in
Snow Depth Not available.
7:19 AM 7:11 PM
Waning Crescent, 10% visible
METAR KGTF 271953Z 22012KT 10SM CLR 28/04 A3001 RMK AO2 SLP135 T02780039

10-Day Weather Forecast

Almanac

Astronomy

Sep. 27, 2016 Rise Set
Actual Time
Civil Twilight
Nautical Twilight
Astronomical Twilight
Moon
Length of Visible Light
Length of Day
Tomorrow will be .
, % of the Moon is Illuminated

Today's Extremes

State Highs State Lows

Community

WunderPhotos

Upload Photos

1,942,171 photos uploaded!

WunderBlog® & News

Nearby

Air Quality

  Air Quality AQ Index Pollutant
Not available.

Snow Depth

Station Depth Elevation

Earthquake Activity

City Distance Mag. Time & Date
Minimum magnitude displayed is 2.5.

Coastal Water Temperatures

Place Temperature

Stations

Nearby Weather Stations

Station Location Temp. Windchill Dew Point Humidity Wind Precip. Elev Updated Type
                   

Watches & Warnings

There are currently no watches in effect.